sensor_id;sensor_type;location;lat;lon;timestamp;temperature;humidity
13464;DHT22;6804;48.774;9.174;2024-01-25T00:00:04;11.80;99.90
13464;DHT22;6804;48.774;9.174;2024-01-25T00:02:34;11.80;99.90
13464;DHT22;6804;48.774;9.174;2024-01-25T00:05:20;11.80;99.90
13464;DHT22;6804;48.774;9.174;2024-01-25T00:08:11;11.80;99.90
13464;DHT22;6804;48.774;9.174;2024-01-25T00:10:42;11.80;99.90
13464;DHT22;6804;48.774;9.174;2024-01-25T00:13:11;11.80;99.90
13464;DHT22;6804;48.774;9.174;2024-01-25T00:15:39;11.80;99.90
13464;DHT22;6804;48.774;9.174;2024-01-25T00:18:12;11.70;99.90
13464;DHT22;6804;48.774;9.174;2024-01-25T00:20:40;11.70;99.90
13464;DHT22;6804;48.774;9.174;2024-01-25T00:23:08;11.70;99.90
13464;DHT22;6804;48.774;9.174;2024-01-25T00:25:39;11.70;99.90
13464;DHT22;6804;48.774;9.174;2024-01-25T00:28:07;11.60;99.90
13464;DHT22;6804;48.774;9.174;2024-01-25T00:30:35;11.60;99.90
13464;DHT22;6804;48.774;9.174;2024-01-25T00:33:02;11.60;99.90
13464;DHT22;6804;48.774;9.174;2024-01-25T00:35:31;11.50;99.90
13464;DHT22;6804;48.774;9.174;2024-01-25T00:37:59;11.60;99.90
13464;DHT22;6804;48.774;9.174;2024-01-25T00:40:27;11.60;99.90
13464;DHT22;6804;48.774;9.174;2024-01-25T00:42:56;11.60;99.90
13464;DHT22;6804;48.774;9.174;2024-01-25T00:45:24;11.60;99.90
13464;DHT22;6804;48.774;9.174;2024-01-25T00:47:55;11.60;99.90
13464;DHT22;6804;48.774;9.174;2024-01-25T00:50:23;11.60;99.90
13464;DHT22;6804;48.774;9.174;2024-01-25T00:52:52;11.60;99.90
13464;DHT22;6804;48.774;9.174;2024-01-25T00:55:20;11.60;99.90
13464;DHT22;6804;48.774;9.174;2024-01-25T00:57:48;11.60;99.90
13464;DHT22;6804;48.774;9.174;2024-01-25T01:00:24;11.50;99.90
13464;DHT22;6804;48.774;9.174;2024-01-25T01:02:53;11.60;99.90
13464;DHT22;6804;48.774;9.174;2024-01-25T01:05:22;11.50;99.90
13464;DHT22;6804;48.774;9.174;2024-01-25T01:07:50;11.50;99.90
13464;DHT22;6804;48.774;9.174;2024-01-25T01:10:20;11.50;99.90
13464;DHT22;6804;48.774;9.174;2024-01-25T01:12:48;11.60;99.90
13464;DHT22;6804;48.774;9.174;2024-01-25T01:15:15;11.60;99.90
13464;DHT22;6804;48.774;9.174;2024-01-25T01:17:45;11.50;99.90
13464;DHT22;6804;48.774;9.174;2024-01-25T01:20:12;11.50;99.90
13464;DHT22;6804;48.774;9.174;2024-01-25T01:22:42;11.50;99.90
13464;DHT22;6804;48.774;9.174;2024-01-25T01:25:10;11.50;99.90
13464;DHT22;6804;48.774;9.174;2024-01-25T01:27:38;11.50;99.90
13464;DHT22;6804;48.774;9.174;2024-01-25T01:30:06;11.60;99.90
13464;DHT22;6804;48.774;9.174;2024-01-25T01:32:35;11.60;99.90
13464;DHT22;6804;48.774;9.174;2024-01-25T01:35:04;11.60;99.90
13464;DHT22;6804;48.774;9.174;2024-01-25T01:37:32;11.60;99.90
13464;DHT22;6804;48.774;9.174;2024-01-25T01:40:02;11.60;99.90
13464;DHT22;6804;48.774;9.174;2024-01-25T01:42:31;11.60;99.90
13464;DHT22;6804;48.774;9.174;2024-01-25T01:44:59;11.60;99.90
13464;DHT22;6804;48.774;9.174;2024-01-25T01:47:27;11.50;99.90
13464;DHT22;6804;48.774;9.174;2024-01-25T01:49:55;11.60;99.90
13464;DHT22;6804;48.774;9.174;2024-01-25T01:52:24;11.60;99.90
13464;DHT22;6804;48.774;9.174;2024-01-25T01:54:52;11.60;99.90
13464;DHT22;6804;48.774;9.174;2024-01-25T01:57:20;11.50;99.90
13464;DHT22;6804;48.774;9.174;2024-01-25T01:59:47;11.60;99.90
13464;DHT22;6804;48.774;9.174;2024-01-25T02:02:17;11.50;99.90
13464;DHT22;6804;48.774;9.174;2024-01-25T02:04:45;11.50;99.90
13464;DHT22;6804;48.774;9.174;2024-01-25T02:07:12;11.50;99.90
13464;DHT22;6804;48.774;9.174;2024-01-25T02:09:44;11.50;99.90
13464;DHT22;6804;48.774;9.174;2024-01-25T02:12:15;11.50;99.90
13464;DHT22;6804;48.774;9.174;2024-01-25T02:14:43;11.50;99.90
13464;DHT22;6804;48.774;9.174;2024-01-25T02:17:12;11.50;99.90
13464;DHT22;6804;48.774;9.174;2024-01-25T02:19:42;11.50;99.90
13464;DHT22;6804;48.774;9.174;2024-01-25T02:22:10;11.50;99.90
13464;DHT22;6804;48.774;9.174;2024-01-25T02:24:42;11.50;99.90
13464;DHT22;6804;48.774;9.174;2024-01-25T02:27:09;11.50;99.90
13464;DHT22;6804;48.774;9.174;2024-01-25T02:29:37;11.50;99.90
13464;DHT22;6804;48.774;9.174;2024-01-25T02:32:07;11.40;99.90
13464;DHT22;6804;48.774;9.174;2024-01-25T02:34:35;11.40;99.90
13464;DHT22;6804;48.774;9.174;2024-01-25T02:37:03;11.40;99.90
13464;DHT22;6804;48.774;9.174;2024-01-25T02:39:33;11.40;99.90
13464;DHT22;6804;48.774;9.174;2024-01-25T02:42:04;11.40;99.90
13464;DHT22;6804;48.774;9.174;2024-01-25T02:44:32;11.40;99.90
13464;DHT22;6804;48.774;9.174;2024-01-25T02:47:04;11.40;99.90
13464;DHT22;6804;48.774;9.174;2024-01-25T02:49:35;11.40;99.90
13464;DHT22;6804;48.774;9.174;2024-01-25T02:52:03;11.40;99.90
13464;DHT22;6804;48.774;9.174;2024-01-25T02:54:36;11.40;99.90
13464;DHT22;6804;48.774;9.174;2024-01-25T02:57:24;11.40;99.90
13464;DHT22;6804;48.774;9.174;2024-01-25T03:00:13;11.30;99.90
13464;DHT22;6804;48.774;9.174;2024-01-25T03:02:59;11.30;99.90
13464;DHT22;6804;48.774;9.174;2024-01-25T03:05:29;11.30;99.90
13464;DHT22;6804;48.774;9.174;2024-01-25T03:08:03;11.30;99.90
13464;DHT22;6804;48.774;9.174;2024-01-25T03:10:34;11.30;99.90
13464;DHT22;6804;48.774;9.174;2024-01-25T03:13:26;11.30;99.90
13464;DHT22;6804;48.774;9.174;2024-01-25T03:15:54;11.30;99.90
13464;DHT22;6804;48.774;9.174;2024-01-25T03:18:25;11.30;99.90
13464;DHT22;6804;48.774;9.174;2024-01-25T03:20:53;11.30;99.90
13464;DHT22;6804;48.774;9.174;2024-01-25T03:23:21;11.30;99.90
13464;DHT22;6804;48.774;9.174;2024-01-25T03:25:52;11.30;99.90
13464;DHT22;6804;48.774;9.174;2024-01-25T03:28:23;11.30;99.90
13464;DHT22;6804;48.774;9.174;2024-01-25T03:30:57;11.30;99.90
13464;DHT22;6804;48.774;9.174;2024-01-25T03:33:25;11.30;99.90
13464;DHT22;6804;48.774;9.174;2024-01-25T03:35:56;11.30;99.90
13464;DHT22;6804;48.774;9.174;2024-01-25T03:38:23;11.40;99.90
13464;DHT22;6804;48.774;9.174;2024-01-25T03:40:51;11.40;99.90
13464;DHT22;6804;48.774;9.174;2024-01-25T03:43:19;11.40;99.90
13464;DHT22;6804;48.774;9.174;2024-01-25T03:45:46;11.40;99.90
13464;DHT22;6804;48.774;9.174;2024-01-25T03:48:15;11.40;99.90
13464;DHT22;6804;48.774;9.174;2024-01-25T03:50:46;11.40;99.90
13464;DHT22;6804;48.774;9.174;2024-01-25T03:53:36;11.40;99.90
13464;DHT22;6804;48.774;9.174;2024-01-25T03:56:11;11.40;99.90
13464;DHT22;6804;48.774;9.174;2024-01-25T03:58:40;11.30;99.90
13464;DHT22;6804;48.774;9.174;2024-01-25T04:01:07;11.30;99.90
13464;DHT22;6804;48.774;9.174;2024-01-25T04:03:37;11.30;99.90
13464;DHT22;6804;48.774;9.174;2024-01-25T04:06:07;11.30;99.90
13464;DHT22;6804;48.774;9.174;2024-01-25T04:08:35;11.30;99.90
13464;DHT22;6804;48.774;9.174;2024-01-25T04:11:03;11.30;99.90
13464;DHT22;6804;48.774;9.174;2024-01-25T04:13:31;11.20;99.90
13464;DHT22;6804;48.774;9.174;2024-01-25T04:15:59;11.20;99.90
13464;DHT22;6804;48.774;9.174;2024-01-25T04:18:29;11.10;99.90
13464;DHT22;6804;48.774;9.174;2024-01-25T04:20:58;11.10;99.90
13464;DHT22;6804;48.774;9.174;2024-01-25T04:23:27;11.10;99.90
13464;DHT22;6804;48.774;9.174;2024-01-25T04:25:56;11.20;99.90
13464;DHT22;6804;48.774;9.174;2024-01-25T04:28:26;11.20;99.90
13464;DHT22;6804;48.774;9.174;2024-01-25T04:30:54;11.10;99.90
13464;DHT22;6804;48.774;9.174;2024-01-25T04:33:22;11.10;99.90
13464;DHT22;6804;48.774;9.174;2024-01-25T04:35:54;11.10;99.90
13464;DHT22;6804;48.774;9.174;2024-01-25T04:38:24;11.10;99.90
13464;DHT22;6804;48.774;9.174;2024-01-25T04:40:52;11.10;99.90
13464;DHT22;6804;48.774;9.174;2024-01-25T04:43:21;11.10;99.90
13464;DHT22;6804;48.774;9.174;2024-01-25T04:45:52;11.10;99.90
13464;DHT22;6804;48.774;9.174;2024-01-25T04:48:22;11.10;99.90
13464;DHT22;6804;48.774;9.174;2024-01-25T04:50:51;11.00;99.90
13464;DHT22;6804;48.774;9.174;2024-01-25T04:53:19;11.00;99.90
13464;DHT22;6804;48.774;9.174;2024-01-25T04:55:48;10.90;99.90
13464;DHT22;6804;48.774;9.174;2024-01-25T04:58:16;10.90;99.90
13464;DHT22;6804;48.774;9.174;2024-01-25T05:00:44;10.90;99.90
13464;DHT22;6804;48.774;9.174;2024-01-25T05:03:11;10.90;99.90
13464;DHT22;6804;48.774;9.174;2024-01-25T05:05:39;10.80;99.90
13464;DHT22;6804;48.774;9.174;2024-01-25T05:08:09;10.80;99.90
13464;DHT22;6804;48.774;9.174;2024-01-25T05:10:39;10.80;99.90
13464;DHT22;6804;48.774;9.174;2024-01-25T05:13:11;10.80;99.90
13464;DHT22;6804;48.774;9.174;2024-01-25T05:15:39;10.80;99.90
13464;DHT22;6804;48.774;9.174;2024-01-25T05:18:07;10.70;99.90
13464;DHT22;6804;48.774;9.174;2024-01-25T05:20:36;10.80;99.90
13464;DHT22;6804;48.774;9.174;2024-01-25T05:23:06;10.80;99.90
13464;DHT22;6804;48.774;9.174;2024-01-25T05:25:34;10.70;99.90
13464;DHT22;6804;48.774;9.174;2024-01-25T05:28:01;10.70;99.90
13464;DHT22;6804;48.774;9.174;2024-01-25T05:30:30;10.70;99.90
13464;DHT22;6804;48.774;9.174;2024-01-25T05:32:58;10.70;99.90
13464;DHT22;6804;48.774;9.174;2024-01-25T05:35:27;10.60;99.90
13464;DHT22;6804;48.774;9.174;2024-01-25T05:37:55;10.60;99.90
13464;DHT22;6804;48.774;9.174;2024-01-25T05:40:24;10.60;99.90
13464;DHT22;6804;48.774;9.174;2024-01-25T05:42:58;10.60;99.90
13464;DHT22;6804;48.774;9.174;2024-01-25T05:45:26;10.60;99.90
13464;DHT22;6804;48.774;9.174;2024-01-25T05:47:59;10.60;99.90
13464;DHT22;6804;48.774;9.174;2024-01-25T05:50:27;10.50;99.90
13464;DHT22;6804;48.774;9.174;2024-01-25T05:52:57;10.60;99.90
13464;DHT22;6804;48.774;9.174;2024-01-25T05:55:25;10.60;99.90
13464;DHT22;6804;48.774;9.174;2024-01-25T05:57:52;10.60;99.90
13464;DHT22;6804;48.774;9.174;2024-01-25T06:00:20;10.60;99.90
13464;DHT22;6804;48.774;9.174;2024-01-25T06:02:48;10.60;99.90
13464;DHT22;6804;48.774;9.174;2024-01-25T06:05:17;10.70;99.90
13464;DHT22;6804;48.774;9.174;2024-01-25T06:07:48;10.70;99.90
13464;DHT22;6804;48.774;9.174;2024-01-25T06:10:19;10.70;99.90
13464;DHT22;6804;48.774;9.174;2024-01-25T06:12:49;10.70;99.90
13464;DHT22;6804;48.774;9.174;2024-01-25T06:15:18;10.70;99.90
13464;DHT22;6804;48.774;9.174;2024-01-25T06:17:49;10.70;99.90
13464;DHT22;6804;48.774;9.174;2024-01-25T06:20:18;10.70;99.90
13464;DHT22;6804;48.774;9.174;2024-01-25T06:22:49;10.60;99.90
13464;DHT22;6804;48.774;9.174;2024-01-25T06:25:20;10.60;99.90
13464;DHT22;6804;48.774;9.174;2024-01-25T06:27:49;10.60;99.90
13464;DHT22;6804;48.774;9.174;2024-01-25T06:30:20;10.60;99.90
13464;DHT22;6804;48.774;9.174;2024-01-25T06:33:09;10.50;99.90
13464;DHT22;6804;48.774;9.174;2024-01-25T06:35:39;10.50;99.90
13464;DHT22;6804;48.774;9.174;2024-01-25T06:38:08;10.50;99.90
13464;DHT22;6804;48.774;9.174;2024-01-25T06:40:36;10.50;99.90
13464;DHT22;6804;48.774;9.174;2024-01-25T06:43:04;10.50;99.90
13464;DHT22;6804;48.774;9.174;2024-01-25T06:45:34;10.50;99.90
13464;DHT22;6804;48.774;9.174;2024-01-25T06:48:07;10.50;99.90
13464;DHT22;6804;48.774;9.174;2024-01-25T06:50:35;10.50;99.90
13464;DHT22;6804;48.774;9.174;2024-01-25T06:53:07;10.50;99.90
13464;DHT22;6804;48.774;9.174;2024-01-25T06:55:35;10.50;99.90
13464;DHT22;6804;48.774;9.174;2024-01-25T06:58:04;10.50;99.90
13464;DHT22;6804;48.774;9.174;2024-01-25T07:00:32;10.50;99.90
13464;DHT22;6804;48.774;9.174;2024-01-25T07:03:04;10.50;99.90
13464;DHT22;6804;48.774;9.174;2024-01-25T07:05:33;10.40;99.90
13464;DHT22;6804;48.774;9.174;2024-01-25T07:08:04;10.30;99.90
13464;DHT22;6804;48.774;9.174;2024-01-25T07:10:32;10.30;99.90
13464;DHT22;6804;48.774;9.174;2024-01-25T07:13:01;10.30;99.90
13464;DHT22;6804;48.774;9.174;2024-01-25T07:15:33;10.40;99.90
13464;DHT22;6804;48.774;9.174;2024-01-25T07:18:01;10.40;99.90
13464;DHT22;6804;48.774;9.174;2024-01-25T07:20:30;10.40;99.90
13464;DHT22;6804;48.774;9.174;2024-01-25T07:22:59;10.40;99.90
13464;DHT22;6804;48.774;9.174;2024-01-25T07:25:34;10.40;99.90
13464;DHT22;6804;48.774;9.174;2024-01-25T07:28:03;10.40;99.90
13464;DHT22;6804;48.774;9.174;2024-01-25T07:30:31;10.40;99.90
13464;DHT22;6804;48.774;9.174;2024-01-25T07:33:02;10.40;99.90
13464;DHT22;6804;48.774;9.174;2024-01-25T07:35:31;10.40;99.90
13464;DHT22;6804;48.774;9.174;2024-01-25T07:37:59;10.40;99.90
13464;DHT22;6804;48.774;9.174;2024-01-25T07:40:28;10.30;99.90
13464;DHT22;6804;48.774;9.174;2024-01-25T07:43:00;10.40;99.90
13464;DHT22;6804;48.774;9.174;2024-01-25T07:45:33;10.40;99.90
13464;DHT22;6804;48.774;9.174;2024-01-25T07:48:04;10.40;99.90
13464;DHT22;6804;48.774;9.174;2024-01-25T07:50:32;10.40;99.90
13464;DHT22;6804;48.774;9.174;2024-01-25T07:53:04;10.50;99.90
13464;DHT22;6804;48.774;9.174;2024-01-25T07:55:37;10.50;99.90
13464;DHT22;6804;48.774;9.174;2024-01-25T07:58:11;10.50;99.90
13464;DHT22;6804;48.774;9.174;2024-01-25T08:00:42;10.50;99.90
13464;DHT22;6804;48.774;9.174;2024-01-25T08:03:12;10.60;99.90
13464;DHT22;6804;48.774;9.174;2024-01-25T08:05:43;10.60;99.90
13464;DHT22;6804;48.774;9.174;2024-01-25T08:08:13;10.60;99.90
13464;DHT22;6804;48.774;9.174;2024-01-25T08:10:41;10.60;99.90
13464;DHT22;6804;48.774;9.174;2024-01-25T08:13:13;10.60;99.90
13464;DHT22;6804;48.774;9.174;2024-01-25T08:15:42;10.70;99.90
13464;DHT22;6804;48.774;9.174;2024-01-25T08:18:10;10.70;99.90
13464;DHT22;6804;48.774;9.174;2024-01-25T08:20:38;10.70;99.90
13464;DHT22;6804;48.774;9.174;2024-01-25T08:23:07;10.80;99.90
13464;DHT22;6804;48.774;9.174;2024-01-25T08:25:42;10.80;99.90
13464;DHT22;6804;48.774;9.174;2024-01-25T08:28:15;10.80;99.90
13464;DHT22;6804;48.774;9.174;2024-01-25T08:30:44;10.90;99.90
13464;DHT22;6804;48.774;9.174;2024-01-25T08:33:14;10.90;99.90
13464;DHT22;6804;48.774;9.174;2024-01-25T08:35:46;11.00;99.90
13464;DHT22;6804;48.774;9.174;2024-01-25T08:38:14;11.00;99.90
13464;DHT22;6804;48.774;9.174;2024-01-25T08:40:44;11.10;99.90
13464;DHT22;6804;48.774;9.174;2024-01-25T08:43:16;11.20;99.90
13464;DHT22;6804;48.774;9.174;2024-01-25T08:45:45;11.30;99.90
13464;DHT22;6804;48.774;9.174;2024-01-25T08:48:16;11.40;99.90
13464;DHT22;6804;48.774;9.174;2024-01-25T08:50:44;11.50;99.90
13464;DHT22;6804;48.774;9.174;2024-01-25T08:53:12;11.60;99.90
13464;DHT22;6804;48.774;9.174;2024-01-25T08:55:43;11.70;99.90
13464;DHT22;6804;48.774;9.174;2024-01-25T08:58:12;11.80;99.90
13464;DHT22;6804;48.774;9.174;2024-01-25T09:00:42;11.90;99.90
13464;DHT22;6804;48.774;9.174;2024-01-25T09:03:10;12.00;99.90
13464;DHT22;6804;48.774;9.174;2024-01-25T09:05:45;12.10;99.90
13464;DHT22;6804;48.774;9.174;2024-01-25T09:08:18;12.20;99.90
13464;DHT22;6804;48.774;9.174;2024-01-25T09:10:46;12.30;99.90
13464;DHT22;6804;48.774;9.174;2024-01-25T09:13:16;12.40;99.90
13464;DHT22;6804;48.774;9.174;2024-01-25T09:15:45;12.40;99.90
13464;DHT22;6804;48.774;9.174;2024-01-25T09:18:16;12.40;99.90
13464;DHT22;6804;48.774;9.174;2024-01-25T09:20:46;12.40;99.90
13464;DHT22;6804;48.774;9.174;2024-01-25T09:23:28;12.40;99.90
13464;DHT22;6804;48.774;9.174;2024-01-25T09:25:55;12.40;99.90
13464;DHT22;6804;48.774;9.174;2024-01-25T09:28:24;12.40;99.90
13464;DHT22;6804;48.774;9.174;2024-01-25T09:30:56;12.50;99.90
13464;DHT22;6804;48.774;9.174;2024-01-25T09:33:25;12.50;99.90
13464;DHT22;6804;48.774;9.174;2024-01-25T09:35:56;12.60;99.90
13464;DHT22;6804;48.774;9.174;2024-01-25T09:38:25;12.50;99.90
13464;DHT22;6804;48.774;9.174;2024-01-25T09:40:56;12.50;99.90
13464;DHT22;6804;48.774;9.174;2024-01-25T09:43:25;12.40;99.90
13464;DHT22;6804;48.774;9.174;2024-01-25T09:45:55;12.40;99.90
13464;DHT22;6804;48.774;9.174;2024-01-25T09:48:24;12.40;99.90
13464;DHT22;6804;48.774;9.174;2024-01-25T09:50:58;12.50;99.90
13464;DHT22;6804;48.774;9.174;2024-01-25T09:53:28;12.50;99.90
13464;DHT22;6804;48.774;9.174;2024-01-25T09:56:05;12.50;99.90
13464;DHT22;6804;48.774;9.174;2024-01-25T09:58:37;12.40;99.90
13464;DHT22;6804;48.774;9.174;2024-01-25T10:01:08;12.40;99.90
13464;DHT22;6804;48.774;9.174;2024-01-25T10:03:37;12.30;99.90
13464;DHT22;6804;48.774;9.174;2024-01-25T10:06:10;12.20;99.90
13464;DHT22;6804;48.774;9.174;2024-01-25T10:08:41;12.10;99.90
13464;DHT22;6804;48.774;9.174;2024-01-25T10:11:11;12.00;99.90
13464;DHT22;6804;48.774;9.174;2024-01-25T10:13:45;11.90;99.90
13464;DHT22;6804;48.774;9.174;2024-01-25T10:16:18;11.90;99.90
13464;DHT22;6804;48.774;9.174;2024-01-25T10:18:47;11.90;99.90
13464;DHT22;6804;48.774;9.174;2024-01-25T10:21:18;11.90;99.90
13464;DHT22;6804;48.774;9.174;2024-01-25T10:23:46;11.80;99.90
13464;DHT22;6804;48.774;9.174;2024-01-25T10:26:36;11.80;99.90
13464;DHT22;6804;48.774;9.174;2024-01-25T10:29:08;11.90;99.90
13464;DHT22;6804;48.774;9.174;2024-01-25T10:31:39;11.80;99.90
13464;DHT22;6804;48.774;9.174;2024-01-25T10:34:10;11.90;99.90
13464;DHT22;6804;48.774;9.174;2024-01-25T10:36:39;11.90;99.90
13464;DHT22;6804;48.774;9.174;2024-01-25T10:39:11;12.00;99.90
13464;DHT22;6804;48.774;9.174;2024-01-25T10:41:45;12.10;99.90
13464;DHT22;6804;48.774;9.174;2024-01-25T10:44:17;12.10;99.90
13464;DHT22;6804;48.774;9.174;2024-01-25T10:46:50;12.20;99.90
13464;DHT22;6804;48.774;9.174;2024-01-25T10:49:18;12.30;99.90
13464;DHT22;6804;48.774;9.174;2024-01-25T10:51:50;12.30;99.90
13464;DHT22;6804;48.774;9.174;2024-01-25T10:54:21;12.40;99.90
13464;DHT22;6804;48.774;9.174;2024-01-25T10:56:52;12.40;99.90
13464;DHT22;6804;48.774;9.174;2024-01-25T10:59:26;12.50;99.90
13464;DHT22;6804;48.774;9.174;2024-01-25T11:02:00;12.60;99.90
13464;DHT22;6804;48.774;9.174;2024-01-25T11:04:29;12.80;99.90
13464;DHT22;6804;48.774;9.174;2024-01-25T11:07:08;13.00;99.90
13464;DHT22;6804;48.774;9.174;2024-01-25T11:09:41;13.30;99.90
13464;DHT22;6804;48.774;9.174;2024-01-25T11:12:12;13.60;99.90
13464;DHT22;6804;48.774;9.174;2024-01-25T11:14:43;13.80;99.90
13464;DHT22;6804;48.774;9.174;2024-01-25T11:17:21;13.70;99.90
13464;DHT22;6804;48.774;9.174;2024-01-25T11:19:51;13.70;99.90
13464;DHT22;6804;48.774;9.174;2024-01-25T11:22:20;13.60;99.90
13464;DHT22;6804;48.774;9.174;2024-01-25T11:24:48;13.70;99.90
13464;DHT22;6804;48.774;9.174;2024-01-25T11:27:35;13.80;99.90
13464;DHT22;6804;48.774;9.174;2024-01-25T11:30:07;13.90;99.90
13464;DHT22;6804;48.774;9.174;2024-01-25T11:32:39;13.90;99.90
13464;DHT22;6804;48.774;9.174;2024-01-25T11:35:08;13.90;99.90
13464;DHT22;6804;48.774;9.174;2024-01-25T11:37:40;13.90;99.90
13464;DHT22;6804;48.774;9.174;2024-01-25T11:40:08;13.90;99.90
13464;DHT22;6804;48.774;9.174;2024-01-25T11:42:42;13.90;99.90
13464;DHT22;6804;48.774;9.174;2024-01-25T11:45:11;14.00;99.90
13464;DHT22;6804;48.774;9.174;2024-01-25T11:47:44;14.20;99.90
13464;DHT22;6804;48.774;9.174;2024-01-25T11:50:14;14.20;99.90
13464;DHT22;6804;48.774;9.174;2024-01-25T11:52:44;14.20;99.90
13464;DHT22;6804;48.774;9.174;2024-01-25T11:55:20;14.20;99.90
13464;DHT22;6804;48.774;9.174;2024-01-25T11:57:51;14.30;99.90
13464;DHT22;6804;48.774;9.174;2024-01-25T12:00:19;14.20;99.90
13464;DHT22;6804;48.774;9.174;2024-01-25T12:02:54;14.30;99.90
13464;DHT22;6804;48.774;9.174;2024-01-25T12:05:23;14.30;99.90
13464;DHT22;6804;48.774;9.174;2024-01-25T12:07:59;14.30;99.90
13464;DHT22;6804;48.774;9.174;2024-01-25T12:10:29;14.40;99.90
13464;DHT22;6804;48.774;9.174;2024-01-25T12:12:57;14.60;99.90
13464;DHT22;6804;48.774;9.174;2024-01-25T12:15:29;14.80;99.90
13464;DHT22;6804;48.774;9.174;2024-01-25T12:18:01;14.90;99.90
13464;DHT22;6804;48.774;9.174;2024-01-25T12:20:35;14.90;99.90
13464;DHT22;6804;48.774;9.174;2024-01-25T12:23:07;15.00;99.90
13464;DHT22;6804;48.774;9.174;2024-01-25T12:25:40;15.20;99.90
13464;DHT22;6804;48.774;9.174;2024-01-25T12:28:09;15.30;99.90
13464;DHT22;6804;48.774;9.174;2024-01-25T12:30:38;15.30;99.90
13464;DHT22;6804;48.774;9.174;2024-01-25T12:33:08;15.10;99.90
13464;DHT22;6804;48.774;9.174;2024-01-25T12:35:37;15.10;99.90
13464;DHT22;6804;48.774;9.174;2024-01-25T12:38:09;15.10;99.90
13464;DHT22;6804;48.774;9.174;2024-01-25T12:40:38;15.20;99.90
13464;DHT22;6804;48.774;9.174;2024-01-25T12:43:25;15.30;99.90
13464;DHT22;6804;48.774;9.174;2024-01-25T12:45:54;15.30;99.90
13464;DHT22;6804;48.774;9.174;2024-01-25T12:48:25;15.40;99.90
13464;DHT22;6804;48.774;9.174;2024-01-25T12:50:53;15.30;99.90
13464;DHT22;6804;48.774;9.174;2024-01-25T12:53:22;15.30;99.90
13464;DHT22;6804;48.774;9.174;2024-01-25T12:55:50;15.20;99.90
13464;DHT22;6804;48.774;9.174;2024-01-25T12:58:24;15.10;99.90
13464;DHT22;6804;48.774;9.174;2024-01-25T13:00:52;15.10;99.90
13464;DHT22;6804;48.774;9.174;2024-01-25T13:03:21;15.00;99.90
13464;DHT22;6804;48.774;9.174;2024-01-25T13:05:53;15.00;99.90
13464;DHT22;6804;48.774;9.174;2024-01-25T13:08:21;15.00;99.90
13464;DHT22;6804;48.774;9.174;2024-01-25T13:10:52;14.90;99.90
13464;DHT22;6804;48.774;9.174;2024-01-25T13:13:21;14.90;99.90
13464;DHT22;6804;48.774;9.174;2024-01-25T13:15:53;14.90;99.90
13464;DHT22;6804;48.774;9.174;2024-01-25T13:18:21;14.90;99.90
13464;DHT22;6804;48.774;9.174;2024-01-25T13:20:54;14.80;99.90
13464;DHT22;6804;48.774;9.174;2024-01-25T13:23:24;14.70;99.90
13464;DHT22;6804;48.774;9.174;2024-01-25T13:26:12;14.80;99.90
13464;DHT22;6804;48.774;9.174;2024-01-25T13:28:43;14.80;99.90
13464;DHT22;6804;48.774;9.174;2024-01-25T13:31:13;14.90;99.90
13464;DHT22;6804;48.774;9.174;2024-01-25T13:33:42;14.90;99.90
13464;DHT22;6804;48.774;9.174;2024-01-25T13:36:14;15.00;99.90
13464;DHT22;6804;48.774;9.174;2024-01-25T13:38:42;15.00;99.90
13464;DHT22;6804;48.774;9.174;2024-01-25T13:41:13;15.00;99.90
13464;DHT22;6804;48.774;9.174;2024-01-25T13:43:43;14.90;99.90
13464;DHT22;6804;48.774;9.174;2024-01-25T13:46:14;14.90;99.90
13464;DHT22;6804;48.774;9.174;2024-01-25T13:48:45;15.00;99.90
13464;DHT22;6804;48.774;9.174;2024-01-25T13:51:15;14.90;99.90
13464;DHT22;6804;48.774;9.174;2024-01-25T13:53:50;14.90;99.90
13464;DHT22;6804;48.774;9.174;2024-01-25T13:56:19;14.80;99.90
13464;DHT22;6804;48.774;9.174;2024-01-25T13:58:47;14.70;99.90
13464;DHT22;6804;48.774;9.174;2024-01-25T14:01:15;14.70;99.90
13464;DHT22;6804;48.774;9.174;2024-01-25T14:03:46;14.70;99.90
13464;DHT22;6804;48.774;9.174;2024-01-25T14:06:18;14.60;99.90
13464;DHT22;6804;48.774;9.174;2024-01-25T14:08:47;14.60;99.90
13464;DHT22;6804;48.774;9.174;2024-01-25T14:11:15;14.60;99.90
13464;DHT22;6804;48.774;9.174;2024-01-25T14:13:44;14.60;99.90
13464;DHT22;6804;48.774;9.174;2024-01-25T14:16:13;14.60;99.90
13464;DHT22;6804;48.774;9.174;2024-01-25T14:18:44;14.50;99.90
13464;DHT22;6804;48.774;9.174;2024-01-25T14:21:15;14.50;99.90
13464;DHT22;6804;48.774;9.174;2024-01-25T14:23:48;14.50;99.90
13464;DHT22;6804;48.774;9.174;2024-01-25T14:26:17;14.50;99.90
13464;DHT22;6804;48.774;9.174;2024-01-25T14:28:45;14.50;99.90
13464;DHT22;6804;48.774;9.174;2024-01-25T14:31:13;14.40;99.90
13464;DHT22;6804;48.774;9.174;2024-01-25T14:33:44;14.40;99.90
13464;DHT22;6804;48.774;9.174;2024-01-25T14:36:14;14.30;99.90
13464;DHT22;6804;48.774;9.174;2024-01-25T14:38:45;14.20;99.90
13464;DHT22;6804;48.774;9.174;2024-01-25T14:41:14;14.20;99.90
13464;DHT22;6804;48.774;9.174;2024-01-25T14:43:44;14.10;99.90
13464;DHT22;6804;48.774;9.174;2024-01-25T14:46:17;14.00;99.90
13464;DHT22;6804;48.774;9.174;2024-01-25T14:48:45;13.90;99.90
13464;DHT22;6804;48.774;9.174;2024-01-25T14:51:14;13.90;99.90
13464;DHT22;6804;48.774;9.174;2024-01-25T14:53:44;13.90;99.90
13464;DHT22;6804;48.774;9.174;2024-01-25T14:56:16;13.90;99.90
13464;DHT22;6804;48.774;9.174;2024-01-25T14:58:47;13.80;99.90
13464;DHT22;6804;48.774;9.174;2024-01-25T15:01:17;13.80;99.90
13464;DHT22;6804;48.774;9.174;2024-01-25T15:03:47;13.80;99.90
13464;DHT22;6804;48.774;9.174;2024-01-25T15:06:15;13.80;99.90
13464;DHT22;6804;48.774;9.174;2024-01-25T15:08:44;13.80;99.90
13464;DHT22;6804;48.774;9.174;2024-01-25T15:11:13;13.80;99.90
13464;DHT22;6804;48.774;9.174;2024-01-25T15:13:46;13.70;99.90
13464;DHT22;6804;48.774;9.174;2024-01-25T15:16:16;13.70;99.90
13464;DHT22;6804;48.774;9.174;2024-01-25T15:18:44;13.70;99.90
13464;DHT22;6804;48.774;9.174;2024-01-25T15:21:12;13.60;99.90
13464;DHT22;6804;48.774;9.174;2024-01-25T15:23:40;13.60;99.90
13464;DHT22;6804;48.774;9.174;2024-01-25T15:26:08;13.60;99.90
13464;DHT22;6804;48.774;9.174;2024-01-25T15:28:37;13.60;99.90
13464;DHT22;6804;48.774;9.174;2024-01-25T15:31:06;13.60;99.90
13464;DHT22;6804;48.774;9.174;2024-01-25T15:33:37;13.60;99.90
13464;DHT22;6804;48.774;9.174;2024-01-25T15:36:25;13.50;99.90
13464;DHT22;6804;48.774;9.174;2024-01-25T15:38:56;13.40;99.90
13464;DHT22;6804;48.774;9.174;2024-01-25T15:41:25;13.30;99.90
13464;DHT22;6804;48.774;9.174;2024-01-25T15:43:56;13.30;99.90
13464;DHT22;6804;48.774;9.174;2024-01-25T15:46:44;13.30;99.90
13464;DHT22;6804;48.774;9.174;2024-01-25T15:49:12;13.30;99.90
13464;DHT22;6804;48.774;9.174;2024-01-25T15:51:42;13.20;99.90
13464;DHT22;6804;48.774;9.174;2024-01-25T15:54:15;13.20;99.90
13464;DHT22;6804;48.774;9.174;2024-01-25T15:56:46;13.10;99.90
13464;DHT22;6804;48.774;9.174;2024-01-25T15:59:17;13.10;99.90
13464;DHT22;6804;48.774;9.174;2024-01-25T16:01:48;13.00;99.90
13464;DHT22;6804;48.774;9.174;2024-01-25T16:04:17;13.00;99.90